Aviation Digital Data Service (ADDS)

Output produced by METARs form (1208 UTC 24 March 2017)
found at http://www.aviationweather.gov/adds/metars/
 
FWCL 241200Z 28007KT 9999 FEW025CB SCT030 29/22 Q1014 NOSIG
TAF COR FWCL 241000Z 2412/2518 07007KT 9999 FEW020CB SCT025 SCT070 
     TEMPO 2412/2416 35004KT 8000 -TSRA FEW020 BKN025 
     TEMPO 2420/2502 VRB02KT 0700 FG FEW008 SCT018 
     BECMG 2506/2508 09006KT 9999 FEW025CB SCT030 
     BECMG 2510/2512 06005KT 9999 FEW020CB BKN080 
     TEMPO 2514/2517 07007KT 8000 -TSRA